WetterOnline ( https://www.wetteronline.de )

Wetter aktuell Berlin

Aktuelles Wetter: Berlin-Tempelhof (49m)

6-stündlich | Neueste Meldungen
Ortszeit Temperatur Wetter
Do, 09.02. 13:00 2.0° C leicht bewölkt
Do, 09.02. 7:00 -4.8° C wolkenlos
Do, 09.02. 1:00 -3.2° C wolkenlos
Mi, 08.02. 19:00 -0.5° C wolkenlos
Mi, 08.02. 13:00 0.2° C wolkenlos
Mi, 08.02. 7:00 -4.8° C wolkenlos
Mi, 08.02. 1:00 -4.7° C wolkenlos
Di, 07.02. 19:00 0.0° C bedeckt
Ortszeit Temperatur Wetter
Do, 09.02. 13:00 2.0° C leicht bewölkt
Do, 09.02. 12:50 2.0° C leicht bewölkt
Do, 09.02. 12:40 2.1° C bedeckt
Do, 09.02. 12:30 1.6° C wolkig
Do, 09.02. 12:20 1.6° C wolkig
Do, 09.02. 12:10 1.6° C wolkig
Do, 09.02. 12:00 1.4° C leicht bewölkt
Do, 09.02. 11:30 0.7° C wolkig
Do, 09.02. 11:00 -0.2° C leicht bewölkt
Do, 09.02. 10:30 -1.1° C wolkig
Do, 09.02. 10:00 -2.1° C wolkig
Ortszeit Relative Feuchte Sichtweite
Do, 09.02. 13:00 52% 40 km
Do, 09.02. 7:00 78% 29 km
Do, 09.02. 1:00 77% 25 km
Mi, 08.02. 19:00 69% 21 km
Mi, 08.02. 13:00 66% 21 km
Mi, 08.02. 7:00 86% 18 km
Mi, 08.02. 1:00 91% 11 km
Di, 07.02. 19:00 71% 26 km
Ortszeit Relative Feuchte Sichtweite
Do, 09.02. 13:00 52% 40 km
Do, 09.02. 12:50 52% -
Do, 09.02. 12:40 52% -
Do, 09.02. 12:30 52% 50 km
Do, 09.02. 12:20 52% -
Do, 09.02. 12:10 52% -
Do, 09.02. 12:00 54% 35 km
Do, 09.02. 11:30 58% 45 km
Do, 09.02. 11:00 61% 29 km
Do, 09.02. 10:30 65% 30 km
Do, 09.02. 10:00 67% 30 km
Ortszeit Niederschlagsmenge Niederschlagsart
Do, 09.02. 13:00 0.0 l/m2 in 6 Std. -
Do, 09.02. 7:00 0.0 l/m2 in 12 Std. -
Do, 09.02. 1:00 0.0 l/m2 in 6 Std. -
Mi, 08.02. 19:00 0.0 l/m2 in 12 Std. -
Mi, 08.02. 13:00 0.0 l/m2 in 6 Std. -
Mi, 08.02. 7:00 0.0 l/m2 in 12 Std. -
Mi, 08.02. 1:00 0.0 l/m2 in 6 Std. -
Di, 07.02. 19:00 0.0 l/m2 in 12 Std. -
Ortszeit Niederschlagsmenge Niederschlagsart
Do, 09.02. 13:00 0.0 l/m2 in 1 Std. -
Do, 09.02. 12:50 keine Meldung -
Do, 09.02. 12:40 keine Meldung -
Do, 09.02. 12:30 0.0 l/m2 in 30 Min -
Do, 09.02. 12:20 keine Meldung -
Do, 09.02. 12:10 keine Meldung -
Do, 09.02. 12:00 0.0 l/m2 in 1 Std. -
Do, 09.02. 11:30 0.0 l/m2 in 30 Min -
Do, 09.02. 11:00 0.0 l/m2 in 1 Std. -
Do, 09.02. 10:30 0.0 l/m2 in 30 Min -
Do, 09.02. 10:00 0.0 l/m2 in 1 Std. -
Ortszeit Stärke Spitze Richtung
km/h Bft. km/h Grad Sektor
Do, 09.02. 13:00 19 3 33 210° SW
Do, 09.02. 7:00 7 2 18 190° S
Do, 09.02. 1:00 13 3 24 140° SO
Mi, 08.02. 19:00 11 2 29 140° SO
Mi, 08.02. 13:00 20 4 33 140° SO
Mi, 08.02. 7:00 9 2 15 120° SO
Mi, 08.02. 1:00 0 0 11 - -
Di, 07.02. 19:00 4 1 11 200° S
Ortszeit Stärke Spitze Richtung
km/h Bft. km/h Grad Sektor
Do, 09.02. 13:00 19 3 33 210° SW
Do, 09.02. 12:50 19 3 - 210° SW
Do, 09.02. 12:40 20 4 - 200° S
Do, 09.02. 12:30 22 4 36 190° S
Do, 09.02. 12:20 22 4 - 190° S
Do, 09.02. 12:10 20 4 - 200° S
Do, 09.02. 12:00 18 3 32 190° S
Do, 09.02. 11:30 17 3 28 190° S
Do, 09.02. 11:00 17 3 24 190° S
Do, 09.02. 10:30 15 3 24 190° S
Do, 09.02. 10:00 15 3 26 200° S
Ortszeit Untergrenze Bedeckung Gattung
total tief tief mittel hoch
Do, 09.02. 13:00 8400 m 5/8 0/8 - - -
Do, 09.02. 7:00 - 0/8 0/8 - - -
Do, 09.02. 1:00 - 0/8 0/8 - - -
Mi, 08.02. 19:00 - 0/8 0/8 - - -
Mi, 08.02. 13:00 - 0/8 0/8 - - -
Mi, 08.02. 7:00 - 0/8 0/8 - - -
Mi, 08.02. 1:00 - 0/8 0/8 - - -
Di, 07.02. 19:00 3600 m 8/8 8/8 - - -
Ortszeit Bedeckungsgrad in Achtel und Wolkenuntergrenze
Do, 09.02. 13:00 4(8400m) 5(10500m)
Do, 09.02. 12:50 4(8400m) 5(10500m)
Do, 09.02. 12:40 8
Do, 09.02. 12:30 5(8700m) 6(10500m) 7(10500m)
Do, 09.02. 12:20 5(8700m) 6(10500m) 7(10500m)
Do, 09.02. 12:10 6
Do, 09.02. 12:00 5(8700m) 6(10500m)
Do, 09.02. 11:30 3(8700m) 5(9000m) 7(10500m)
Do, 09.02. 11:00 6(10500m)
Do, 09.02. 10:30 7(10500m) 8(10500m)
Do, 09.02. 10:00 8(10500m) 8(10500m)
Ortszeit Luftdruck NN (hPa) Tendenz (hPa in 3 Std.)
Do, 09.02. 13:00 1032 - 1,7
Do, 09.02. 7:00 1035 - 0,9
Do, 09.02. 1:00 1037 - 1,7
Mi, 08.02. 19:00 1040 - 1,0
Mi, 08.02. 13:00 1042 - 1,2
Mi, 08.02. 7:00 1043 + 0,2
Mi, 08.02. 1:00 1043 - 0,1
Di, 07.02. 19:00 1042 + 0,1
Ortszeit Luftdruck NN (hPa) Tendenz (hPa in 3 Std.)
Do, 09.02. 13:00 1032 - 1,7
Do, 09.02. 12:50 1032 keine Meldung
Do, 09.02. 12:40 1032 keine Meldung
Do, 09.02. 12:30 1032 - 1,9
Do, 09.02. 12:20 1032 keine Meldung
Do, 09.02. 12:10 1033 keine Meldung
Do, 09.02. 12:00 1033 - 1,1
Do, 09.02. 11:30 1034 - 1,0
Do, 09.02. 11:00 1034 - 0,5
Do, 09.02. 10:30 1034 - 0,3
Do, 09.02. 10:00 1034 - 0,2
Ortszeit Schneehöhe (cm)
Do, 09.02. 13:00 0
Do, 09.02. 7:00 0
Do, 09.02. 1:00 0
Mi, 08.02. 19:00 0
Mi, 08.02. 13:00 0
Mi, 08.02. 7:00 0
Mi, 08.02. 1:00 0
Di, 07.02. 19:00 0
Ortszeit Schneehöhe (cm)
Do, 09.02. 13:00 0
Do, 09.02. 12:50 0
Do, 09.02. 12:40 0
Do, 09.02. 12:30 0
Do, 09.02. 12:20 0
Do, 09.02. 12:10 0
Do, 09.02. 12:00 0
Do, 09.02. 11:30 0
Do, 09.02. 11:00 0
Do, 09.02. 10:30 0
Do, 09.02. 10:00 0
Link zu dieser Seite / Seite empfehlen

Das Wetter in ...